Dracut, MA

11:13 PM EDT on October 01, 2014 (GMT -0400)
Navy Yard | Change Station
CLOSE
Current Station
Personal Weather Station
Location: Dracut, MA
Elevation: 89 ft
Nearby Weather Stations

Elev 89 ft 42.67 °N, 71.32 °W | Updated 14 seconds ago

Rain
Rain
57.4 °F
Feels Like 57.4 °F
N
1.6
Wind Variable Wind from WNW
Gusts 6.9 mph

Today
High -- | Low -- °F
--% Chance of Precip.
Yesterday
High -- | Low -- °F
Precip. -- in
6:42 AM 6:26 PM
First Quarter, 54% visible
Pressure 30.14 in
Visibility 10.0 miles
Clouds Mostly Cloudy 900 ft
Overcast 1400 ft
Dew Point 57 °F
Humidity 99%
Rainfall 0.30 in
Snow Depth Not available.
UV 0 out of 12
Pollen .40 out of 12
Ozone Good
PM2.5 Good
Flu Activity Not available.
SPECI KLWM 020304Z AUTO 03009KT 10SM BKN009 OVC014 14/13 A3014 RMK AO2 CIG 007V011 T01390128 PNO $

More Conditions Fewer Conditions

Pressure 30.14 in
Visibility 10.0 miles
Clouds Mostly Cloudy 900 ft
Overcast 1400 ft
Dew Point 57 °F
Humidity 99%
Rainfall 0.30 in
Snow Depth Not available.
UV 0 out of 12
Pollen .40 out of 12
Ozone Good
PM2.5 Good
Flu Activity Not available.
SPECI KLWM 020304Z AUTO 03009KT 10SM BKN009 OVC014 14/13 A3014 RMK AO2 CIG 007V011 T01390128 PNO $

More Conditions Fewer Conditions

10-Day Weather Forecast

Almanac

Astronomy

Oct. 01, 2014 Rise Set
Actual Time 6:42 AM EDT 6:26 PM EDT
Civil Twilight 6:14 AM EDT 6:54 PM EDT
Nautical Twilight 5:41 AM EDT 7:27 PM EDT
Astronomical Twilight 5:08 AM EDT 8:00 PM EDT
Moon 1:46 PM EDT (10/1) 11:49 PM EDT (10/1)
Length of Visible Light 12h 40m
Length of Day
11h 44m
Tomorrow will be 2m 51s shorter.
First Quarter, 54% of the Moon is Illuminated
Today
First Quarter
Oct 8
Full
Oct 15
Last Quarter
Oct 23
New
Oct 30
First Quarter

Today's Extremes

State Highs State Lows

Community

WunderPhotos

Upload Photos

1,758,157 photos uploaded!

WunderBlogs® & News

Nearby

Air Quality

  Air Quality AQ Index Pollutant
Yesterday Good
PM2.5
Yesterday Good
OZONE
Current Good
PM2.5
Current Good
OZONE
Wednesday Good
PM2.5
Wednesday Good
OZONE
Thursday Good
PM2.5
Thursday Good
OZONE

Snow Depth

Station Depth Elevation
No new snow has been reported.

Earthquake Activity

City Distance Mag. Time & Date
No recent earthquake activity has been reported nearby.
Minimum magnitude displayed is 2.5.

Coastal Water Temperatures

Place Temperature
Boston, MA 62.1 °F
Fall River, MA 66.9 °F

Nearby Weather Stations